Time;durP1;ratioP1;P1;durP2;ratioP2;P2;SDS_P1;SDS_P2;PMS_P1;PMS_P2;Temp;Humidity;BMP_temperature;BMP_pressure;BME280_temperature;BME280_humidity;BME280_pressure;Samples;Min_cycle;Max_cycle;Signal;HPM_P1;HPM_P2
2021/08/01 18:42:42;;;;;;;11.23;7.80;;;;;;;22.99;58.95;99117.03;3319404;29;20162;-72
2021/08/01 18:44:26;;;;;;;8.95;7.00;;;;;;;22.98;58.64;99110.00;3338609;29;20052;-71
2021/08/01 18:46:09;;;;;;;9.40;7.35;;;;;;;22.99;58.62;99110.81;3326183;29;20046;-73
2021/08/01 18:47:56;;;;;;;10.07;7.47;;;;;;;23.01;58.91;99120.28;3324293;29;20046;-73
2021/08/01 18:49:37;;;;;;;9.57;7.43;;;;;;;23.01;58.32;99123.00;3325119;29;20053;-72
2021/08/01 18:51:28;;;;;;;7.80;6.97;;;;;;;23.02;59.29;99115.66;3324559;29;20042;-74
2021/08/01 18:53:12;;;;;;;12.38;7.68;;;;;;;22.99;59.76;99111.59;3325282;29;20054;-71
2021/08/01 18:54:54;;;;;;;9.43;7.55;;;;;;;23.03;59.28;99109.94;3326606;29;20510;-72
2021/08/01 18:56:38;;;;;;;13.10;8.18;;;;;;;23.01;59.00;99109.41;3326339;29;20039;-71
2021/08/01 18:58:20;;;;;;;10.55;8.15;;;;;;;23.05;59.97;99113.19;3324047;29;20187;-71
2021/08/01 19:00:03;;;;;;;11.60;7.18;;;;;;;23.05;59.40;99115.91;3325508;29;20520;-73
2021/08/01 19:01:46;;;;;;;11.98;7.57;;;;;;;23.06;59.15;99114.78;3324992;29;20066;-71
2021/08/01 19:03:27;;;;;;;10.30;8.93;;;;;;;23.07;59.87;99113.69;3325965;29;20047;-72
2021/08/01 19:05:10;;;;;;;8.80;7.83;;;;;;;23.06;60.15;99114.78;3324862;29;20047;-72
2021/08/01 19:06:51;;;;;;;10.43;8.38;;;;;;;23.07;60.21;99113.69;3325542;29;20413;-73
2021/08/01 19:08:35;;;;;;;10.90;7.80;;;;;;;23.08;60.29;99112.59;3337742;29;20263;-73
2021/08/01 19:10:16;;;;;;;10.15;8.32;;;;;;;23.08;60.13;99109.88;3311800;29;20046;-74
2021/08/01 19:11:57;;;;;;;10.88;8.13;;;;;;;23.11;59.63;99113.13;3320630;29;20046;-73
2021/08/01 19:13:38;;;;;;;11.63;8.53;;;;;;;23.07;60.54;99102.81;3312608;29;20615;-73
2021/08/01 19:15:19;;;;;;;10.37;8.70;;;;;;;23.13;60.60;99108.19;3315042;29;20414;-71
2021/08/01 19:17:05;;;;;;;10.40;9.07;;;;;;;23.13;60.43;99108.19;3325179;29;20133;-72
2021/08/01 19:18:52;;;;;;;10.77;9.43;;;;;;;23.13;61.44;99100.03;3324925;29;20053;-72
2021/08/01 19:20:43;;;;;;;10.55;8.27;;;;;;;23.15;60.93;99106.78;3326574;29;20058;-72
2021/08/01 19:22:28;;;;;;;12.32;8.25;;;;;;;23.14;60.46;99107.09;3322302;29;20422;-73
2021/08/01 19:24:10;;;;;;;13.20;8.93;;;;;;;23.14;60.17;99101.66;3318936;29;20107;-73
2021/08/01 19:26:02;;;;;;;15.27;10.13;;;;;;;23.13;60.73;99095.41;3322114;29;20058;-73
2021/08/01 19:27:44;;;;;;;13.27;10.98;;;;;;;23.15;60.89;99098.63;3334651;29;20604;-73
2021/08/01 19:29:24;;;;;;;;;;;;;;;23.18;60.59;99092.63;3328566;29;20058;-73
2021/08/01 19:31:07;;;;;;;12.35;9.45;;;;;;;23.16;60.57;99096.75;3337573;29;20402;-73
2021/08/01 19:32:53;;;;;;;11.27;8.90;;;;;;;23.17;61.91;99098.34;3323845;29;20046;-74
2021/08/01 19:34:38;;;;;;;11.20;9.30;;;;;;;23.16;61.74;99102.97;3323535;29;20422;-73
2021/08/01 19:36:19;;;;;;;12.45;9.57;;;;;;;23.17;61.60;99096.44;3323879;29;20467;-72
2021/08/01 19:38:04;;;;;;;11.03;9.33;;;;;;;23.17;61.48;99096.44;3325002;29;20039;-73
2021/08/01 19:39:46;;;;;;;10.25;9.15;;;;;;;23.14;62.27;99088.06;3324298;29;20046;-73
2021/08/01 19:41:28;;;;;;;10.80;9.15;;;;;;;23.18;61.97;99092.63;3325002;29;20574;-73
2021/08/01 19:43:08;;;;;;;12.77;9.40;;;;;;;23.19;62.10;99093.44;3324042;29;20587;-72
2021/08/01 19:44:49;;;;;;;12.53;8.73;;;;;;;23.18;62.14;99097.22;3324159;29;20054;-72
2021/08/01 19:46:31;;;;;;;12.70;9.00;;;;;;;23.21;61.86;99102.13;3324963;29;20103;-73
2021/08/01 19:48:11;;;;;;;11.43;8.43;;;;;;;23.20;61.79;99095.84;3325526;29;20331;-72
2021/08/01 19:49:53;;;;;;;10.83;9.47;;;;;;;23.21;62.83;99097.47;3324253;29;20415;-73
2021/08/01 19:51:34;;;;;;;9.48;8.55;;;;;;;23.22;62.65;99099.09;3324616;29;20084;-72
2021/08/01 19:53:15;;;;;;;11.67;9.50;;;;;;;23.21;62.67;99104.84;3325315;29;20483;-73
2021/08/01 19:54:56;;;;;;;12.80;9.37;;;;;;;23.21;62.82;99102.13;3336873;29;20046;-72
2021/08/01 19:56:37;;;;;;;10.23;8.60;;;;;;;23.22;62.83;99098.28;3326024;29;20534;-73
2021/08/01 19:58:18;;;;;;;10.50;9.07;;;;;;;23.20;62.69;99101.28;3325942;29;20093;-73
2021/08/01 19:59:58;;;;;;;10.17;8.40;;;;;;;23.21;63.01;99102.91;3325790;29;20053;-72
2021/08/01 20:01:39;;;;;;;11.30;8.67;;;;;;;23.17;63.56;99092.91;3325719;29;20046;-72
2021/08/01 20:03:20;;;;;;;9.88;8.77;;;;;;;23.21;64.18;99099.41;3325830;29;20658;-72
2021/08/01 20:05:01;;;;;;;14.40;9.60;;;;;;;23.23;64.18;99099.88;3336642;29;20054;-73
2021/08/01 20:06:42;;;;;;;10.33;9.07;;;;;;;23.23;64.49;99100.72;3328046;29;20065;-71
2021/08/01 20:08:23;;;;;;;;;;;;;;;23.27;63.83;99109.09;3325894;29;20069;-71
2021/08/01 20:10:05;;;;;;;11.50;8.77;;;;;;;23.23;64.23;99100.72;3324132;29;20331;-74
2021/08/01 20:11:45;;;;;;;9.77;8.77;;;;;;;23.23;64.14;99110.75;3334566;29;20053;-73
2021/08/01 20:13:26;;;;;;;12.03;9.80;;;;;;;23.23;64.38;99117.03;3327912;29;20105;-72
2021/08/01 20:15:09;;;;;;;9.70;8.77;;;;;;;23.20;64.38;99112.16;3337214;29;20057;-75
2021/08/01 20:16:50;;;;;;;10.38;9.27;;;;;;;23.20;64.13;99112.16;3327491;29;20406;-74
2021/08/01 20:18:31;;;;;;;12.37;9.67;;;;;;;23.21;64.12;99110.28;3325690;29;20054;-74
2021/08/01 20:20:12;;;;;;;12.03;8.90;;;;;;;23.22;63.89;99120.03;3325519;29;20463;-73
2021/08/01 20:21:54;;;;;;;10.80;8.32;;;;;;;23.24;63.77;99134.16;3325623;29;20077;-73
2021/08/01 20:23:35;;;;;;;16.37;9.40;;;;;;;23.23;64.06;99119.75;3325690;29;20424;-73
2021/08/01 20:25:16;;;;;;;10.37;8.47;;;;;;;23.23;64.11;99127.91;3325798;29;20046;-73
2021/08/01 20:26:56;;;;;;;14.63;8.97;;;;;;;23.24;63.81;99124.06;3325896;29;20441;-72
2021/08/01 20:28:37;;;;;;;9.90;7.10;;;;;;;23.26;63.23;99129.25;3325841;29;20046;-74
2021/08/01 20:30:18;;;;;;;10.03;7.80;;;;;;;23.26;63.36;99126.50;3325788;29;20133;-74
2021/08/01 20:31:59;;;;;;;10.13;9.13;;;;;;;23.25;63.39;99124.88;3325562;29;20054;-72
2021/08/01 20:33:39;;;;;;;8.57;7.67;;;;;;;23.27;63.13;99131.66;3337083;29;20057;-73
2021/08/01 20:35:20;;;;;;;10.27;8.37;;;;;;;23.26;62.88;99127.31;3327915;29;20137;-73
2021/08/01 20:37:01;;;;;;;12.10;8.03;;;;;;;23.27;62.96;99128.94;3325391;29;20398;-72
2021/08/01 20:38:45;;;;;;;14.43;8.77;;;;;;;23.26;63.18;99134.69;3325537;29;20075;-72
2021/08/01 20:40:26;;;;;;;12.90;9.00;;;;;;;23.28;62.96;99140.59;3325590;29;20121;-73
2021/08/01 20:42:07;;;;;;;11.57;10.10;;;;;;;23.26;63.17;99138.19;3324705;29;20156;-71
2021/08/01 20:43:48;;;;;;;9.03;8.13;;;;;;;23.25;63.11;99138.47;3325077;29;20462;-73
2021/08/01 20:45:29;;;;;;;10.33;9.07;;;;;;;23.28;63.29;99144.16;3325325;29;20054;-74
2021/08/01 20:47:11;;;;;;;10.07;8.80;;;;;;;23.26;63.29;99134.69;3337291;29;20053;-74
2021/08/01 20:48:53;;;;;;;11.23;8.68;;;;;;;23.28;63.12;99143.31;3324208;29;20058;-74
2021/08/01 20:50:34;;;;;;;10.88;8.65;;;;;;;23.27;63.41;99145.25;3325509;29;20054;-73
2021/08/01 20:52:14;;;;;;;10.60;9.00;;;;;;;23.28;63.29;99140.59;3325663;29;20063;-74
2021/08/01 20:53:55;;;;;;;12.57;9.23;;;;;;;23.28;63.06;99141.44;3337177;29;20049;-74
2021/08/01 20:55:36;;;;;;;11.73;9.63;;;;;;;23.24;62.95;99134.94;3327851;29;20042;-74
2021/08/01 20:57:17;;;;;;;15.27;9.20;;;;;;;23.28;62.85;99146.03;3325450;29;20046;-73
2021/08/01 20:58:58;;;;;;;10.67;8.77;;;;;;;23.28;63.00;99141.44;3324640;29;20046;-76
2021/08/01 21:00:38;;;;;;;13.00;9.10;;;;;;;23.29;63.19;99150.41;3322070;29;20057;-73
2021/08/01 21:02:19;;;;;;;13.40;9.47;;;;;;;23.26;63.13;99142.84;3325248;29;20038;-76
2021/08/01 21:04:00;;;;;;;13.30;9.73;;;;;;;23.29;63.33;99148.47;3325577;29;20046;-73
2021/08/01 21:05:41;;;;;;;13.90;9.67;;;;;;;23.29;63.29;99136.81;3324350;29;20145;-73
2021/08/01 21:07:26;;;;;;;16.95;10.32;;;;;;;23.27;63.52;99139.81;3325106;29;20323;-73
2021/08/01 21:09:07;;;;;;;22.90;10.32;;;;;;;23.29;63.88;99139.53;3324496;29;20054;-73
2021/08/01 21:10:48;;;;;;;17.73;9.63;;;;;;;23.27;63.96;99131.66;3324939;29;20129;-73
2021/08/01 21:12:28;;;;;;;15.17;10.90;;;;;;;23.27;64.26;99126.22;3325351;29;20421;-80
2021/08/01 21:14:10;;;;;;;14.13;10.37;;;;;;;23.27;64.72;99122.69;3325549;29;20060;-77
2021/08/01 21:15:51;;;;;;;16.08;11.15;;;;;;;23.25;65.21;99124.88;3311500;29;20039;-75
2021/08/01 21:17:33;;;;;;;16.60;10.68;;;;;;;23.28;64.73;99129.72;3322807;29;20060;-74
2021/08/01 21:19:13;;;;;;;11.60;10.38;;;;;;;23.27;64.70;99117.25;3325779;29;20066;-74
2021/08/01 21:20:55;;;;;;;20.73;10.93;;;;;;;23.26;64.40;99121.06;3324537;29;20059;-74
2021/08/01 21:22:36;;;;;;;14.38;10.18;;;;;;;23.27;64.38;99123.50;3325240;29;20428;-73
2021/08/01 21:24:18;;;;;;;17.13;11.20;;;;;;;23.27;64.08;99128.13;3324339;29;20128;-74
2021/08/01 21:25:59;;;;;;;19.08;11.68;;;;;;;23.29;64.19;99131.38;3325037;29;20149;-73
2021/08/01 21:27:40;;;;;;;13.27;10.70;;;;;;;23.24;63.98;99123.28;3325299;29;20114;-74
2021/08/01 21:29:21;;;;;;;14.80;10.10;;;;;;;23.29;64.19;99132.16;3325095;29;20145;-73
2021/08/01 21:31:02;;;;;;;14.10;9.82;;;;;;;23.27;63.80;99134.38;3325159;29;20054;-74
2021/08/01 21:32:44;;;;;;;12.70;10.10;;;;;;;23.28;64.52;99130.56;3336578;29;20145;-74
2021/08/01 21:34:24;;;;;;;;;;;;;;;23.32;64.40;99130.78;3327700;29;20114;-72
2021/08/01 21:36:05;;;;;;;12.90;10.10;;;;;;;23.28;64.29;99137.88;3325150;29;20358;-74
2021/08/01 21:37:46;;;;;;;11.13;10.00;;;;;;;23.27;64.47;99125.41;3325417;29;20083;-73
2021/08/01 21:39:29;;;;;;;11.20;9.37;;;;;;;23.27;64.32;99130.84;3325147;29;20050;-73
2021/08/01 21:41:13;;;;;;;12.23;9.57;;;;;;;23.27;64.64;99133.56;3324122;29;20134;-73
2021/08/01 21:42:53;;;;;;;12.50;10.77;;;;;;;23.27;64.43;99133.56;3324707;29;20102;-74
2021/08/01 21:44:34;;;;;;;12.30;8.60;;;;;;;23.26;64.29;99129.25;3324958;29;20050;-72
2021/08/01 21:46:16;;;;;;;8.93;7.43;;;;;;;23.27;63.98;99128.13;3324610;29;20042;-73
2021/08/01 21:47:57;;;;;;;9.85;8.32;;;;;;;23.26;63.93;99126.50;3325029;29;20459;-72
2021/08/01 21:49:37;;;;;;;16.60;8.93;;;;;;;23.27;63.75;99126.22;3323938;29;20050;-72
2021/08/01 21:51:19;;;;;;;13.80;9.33;;;;;;;23.27;64.47;99125.41;3324808;29;20043;-73
2021/08/01 21:53:00;;;;;;;12.00;9.77;;;;;;;23.28;64.29;99124.28;3324304;29;20526;-74
2021/08/01 21:54:42;;;;;;;8.87;8.07;;;;;;;23.28;63.67;99124.28;3325175;29;20086;-74
2021/08/01 21:56:23;;;;;;;10.65;8.95;;;;;;;23.29;64.27;99125.94;3325060;29;20046;-74
2021/08/01 21:58:04;;;;;;;10.50;8.87;;;;;;;23.26;63.83;99123.81;3325106;29;20046;-72
2021/08/01 21:59:45;;;;;;;9.40;8.37;;;;;;;23.27;63.99;99128.13;3324878;29;20050;-73
2021/08/01 22:01:30;;;;;;;11.63;9.93;;;;;;;23.28;64.22;99121.56;3324188;29;20054;-74
2021/08/01 22:03:17;;;;;;;11.40;8.85;;;;;;;23.28;63.80;99125.13;3324133;29;20422;-72
2021/08/01 22:04:59;;;;;;;10.40;9.23;;;;;;;23.28;63.62;99119.69;3324522;29;20106;-72
2021/08/01 22:06:41;;;;;;;10.57;8.20;;;;;;;23.28;63.46;99116.13;3324952;29;20054;-73
2021/08/01 22:08:24;;;;;;;14.38;8.73;;;;;;;23.28;63.21;99119.69;3323991;29;20483;-72
2021/08/01 22:10:05;;;;;;;9.20;7.40;;;;;;;23.29;62.88;99109.63;3324813;29;20053;-72
2021/08/01 22:11:46;;;;;;;;;;;;;;;23.33;62.86;99105.19;3324182;29;20422;-72
2021/08/01 22:13:27;;;;;;;8.90;7.38;;;;;;;23.28;62.84;99105.25;3324124;29;20016;-74
2021/08/01 22:15:14;;;;;;;10.60;8.68;;;;;;;23.28;63.58;99107.97;3308886;29;20134;-74
2021/08/01 22:16:56;;;;;;;9.45;8.43;;;;;;;23.27;63.77;99111.81;3322820;29;20059;-72
2021/08/01 22:18:37;;;;;;;12.15;9.05;;;;;;;23.27;63.98;99111.81;3324987;29;20517;-72
2021/08/01 22:20:17;;;;;;;9.48;8.40;;;;;;;23.27;64.14;99109.09;3325190;29;20498;-74
2021/08/01 22:22:00;;;;;;;11.17;9.77;;;;;;;23.26;63.97;99110.19;3324335;29;20169;-72
2021/08/01 22:23:42;;;;;;;12.68;9.45;;;;;;;23.22;64.84;99099.09;3324199;29;20057;-71
2021/08/01 22:25:27;;;;;;;13.85;9.02;;;;;;;23.25;64.79;99103.94;3324508;29;20049;-73
2021/08/01 22:27:09;;;;;;;11.13;8.68;;;;;;;23.25;64.32;99103.13;3324724;29;20421;-71
2021/08/01 22:28:55;;;;;;;10.65;9.50;;;;;;;23.25;64.74;99103.94;3325073;29;20090;-73
2021/08/01 22:30:36;;;;;;;14.18;9.80;;;;;;;23.24;64.14;99102.31;3324859;29;20132;-73
2021/08/01 22:32:18;;;;;;;10.87;9.77;;;;;;;23.22;65.21;99092.84;3325782;29;20088;-74
2021/08/01 22:34:00;;;;;;;;;;;;;;;23.27;65.02;99096.28;3338922;29;21230;-73
2021/08/01 22:35:41;;;;;;;13.23;10.57;;;;;;;23.21;65.67;99096.69;3329199;29;19924;-74
2021/08/01 22:37:26;;;;;;;14.00;11.40;;;;;;;23.19;66.55;99096.16;3326092;29;20236;-73
2021/08/01 22:39:07;;;;;;;16.27;11.75;;;;;;;23.16;67.24;99092.09;3326600;29;20050;-74
2021/08/01 22:40:50;;;;;;;17.37;11.73;;;;;;;23.16;67.18;99091.31;3326602;29;20548;-73
2021/08/01 22:42:32;;;;;;;15.98;10.20;;;;;;;23.13;67.39;99083.72;3315300;29;20054;-73
2021/08/01 22:44:15;;;;;;;12.13;9.35;;;;;;;23.14;67.44;99085.34;3313499;29;20065;-73
2021/08/01 22:45:56;;;;;;;15.73;11.00;;;;;;;23.14;67.26;99080.72;3314123;29;20127;-73
2021/08/01 22:47:39;;;;;;;13.70;10.60;;;;;;;23.15;66.81;99079.59;3325007;29;20050;-71
2021/08/01 22:49:21;;;;;;;17.55;10.55;;;;;;;23.14;66.60;99082.63;3315905;29;20141;-72
2021/08/01 22:51:04;;;;;;;14.13;10.32;;;;;;;23.16;66.59;99086.66;3313783;29;20039;-73
2021/08/01 22:52:45;;;;;;;11.68;10.43;;;;;;;23.16;66.49;99080.44;3313581;29;20054;-74
2021/08/01 22:54:26;;;;;;;18.65;11.90;;;;;;;23.15;66.50;99084.22;3313604;29;20428;-73
2021/08/01 22:56:06;;;;;;;13.07;9.97;;;;;;;23.17;66.55;99090.19;3313052;29;20068;-74
2021/08/01 22:57:47;;;;;;;14.67;10.37;;;;;;;23.17;66.26;99091.00;3313620;29;20046;-73
2021/08/01 22:59:28;;;;;;;11.47;9.27;;;;;;;23.17;65.58;99084.75;3313644;29;20058;-72
2021/08/01 23:01:15;;;;;;;9.73;7.83;;;;;;;23.18;64.86;99097.22;3313324;29;20636;-71
2021/08/01 23:03:19;;;;;;;14.07;9.13;;;;;;;23.16;64.38;99096.75;3325078;29;20418;-74
2021/08/01 23:05:05;;;;;;;8.75;7.80;;;;;;;23.18;63.67;99086.34;3312508;29;20082;-71
2021/08/01 23:06:51;;;;;;;11.18;8.55;;;;;;;23.19;63.42;99090.72;3310614;29;20519;-70
2021/08/01 23:08:43;;;;;;;12.93;8.25;;;;;;;23.19;63.18;99090.72;3313632;29;20135;-72
2021/08/01 23:10:26;;;;;;;12.77;8.05;;;;;;;23.16;63.40;99089.38;3313375;29;20426;-73
2021/08/01 23:12:09;;;;;;;13.35;10.15;;;;;;;23.16;64.21;99088.59;3312242;29;20431;-72
2021/08/01 23:14:01;;;;;;;9.88;8.95;;;;;;;23.18;63.97;99097.22;3310228;29;20144;-72
2021/08/01 23:15:46;;;;;;;12.48;9.68;;;;;;;23.17;64.81;99095.63;3313217;29;20077;-73
2021/08/01 23:17:45;;;;;;;12.60;8.55;;;;;;;23.19;64.24;99090.72;3324942;29;20046;-75
2021/08/01 23:19:28;;;;;;;12.57;8.93;;;;;;;23.16;63.89;99099.47;3313611;29;20157;-70
2021/08/01 23:21:11;;;;;;;9.75;8.32;;;;;;;23.17;63.84;99103.78;3313384;29;20047;-71
2021/08/01 23:23:03;;;;;;;12.20;8.93;;;;;;;23.16;63.89;99105.69;3324935;29;20068;-71
2021/08/01 23:25:14;;;;;;;14.45;9.55;;;;;;;23.15;65.10;99097.81;3324721;29;20196;-72
2021/08/01 23:26:55;;;;;;;12.98;8.35;;;;;;;23.14;64.15;99102.47;3312472;29;20058;-70
2021/08/01 23:28:39;;;;;;;10.97;9.87;;;;;;;23.15;63.73;99106.78;3309945;29;20153;-72
2021/08/01 23:30:21;;;;;;;11.45;10.07;;;;;;;23.16;63.78;99110.34;3313006;29;20051;-72
2021/08/01 23:32:01;;;;;;;;;;;;;;;23.20;63.45;99111.34;3313680;29;20074;-70
2021/08/01 23:33:43;;;;;;;10.00;9.00;;;;;;;23.16;63.70;99105.69;3324518;29;20025;-72
2021/08/01 23:35:26;;;;;;;13.90;9.02;;;;;;;23.14;63.66;99102.47;3315535;29;20054;-70
2021/08/01 23:37:09;;;;;;;11.32;8.23;;;;;;;23.15;63.20;99108.69;3324711;29;20042;-70
2021/08/01 23:38:53;;;;;;;12.90;8.82;;;;;;;23.17;63.69;99103.78;3315251;29;20119;-71
2021/08/01 23:40:37;;;;;;;9.98;8.30;;;;;;;23.17;63.27;99103.78;3313242;29;20047;-74
2021/08/01 23:42:18;;;;;;;11.95;9.00;;;;;;;23.18;62.83;99097.22;3312947;29;20051;-72
2021/08/01 23:44:00;;;;;;;9.90;7.63;;;;;;;23.19;62.46;99107.81;3312713;29;20047;-74
2021/08/01 23:45:41;;;;;;;12.15;9.07;;;;;;;23.21;62.42;99118.44;3311923;29;20557;-74
2021/08/01 23:47:21;;;;;;;12.13;8.70;;;;;;;23.19;62.55;99115.97;3309787;29;20055;-75
2021/08/01 23:49:02;;;;;;;11.57;9.13;;;;;;;23.21;62.80;99129.31;3313000;29;20521;-74
2021/08/01 23:51:07;;;;;;;13.30;9.97;;;;;;;23.25;63.00;99130.31;3324336;29;20141;-75
2021/08/01 23:53:16;;;;;;;11.68;9.82;;;;;;;23.24;62.94;99129.50;3309428;29;20535;-74
2021/08/01 23:55:03;;;;;;;13.20;9.18;;;;;;;23.23;62.68;99138.78;3324329;29;20058;-73
2021/08/01 23:57:09;;;;;;;11.85;8.95;;;;;;;23.24;62.64;99140.41;3314503;29;20078;-75
2021/08/01 23:59:38;;;;;;;15.45;9.38;;;;;;;23.25;62.94;99152.06;3324533;29;20058;-74
